createdAt,value
2019-03-24T00:00:05.417Z,100722.16
2019-03-24T00:00:50.220Z,100717.81
2019-03-24T00:01:41.213Z,100719.03
2019-03-24T00:02:14.528Z,100714.86
2019-03-24T00:02:51.831Z,100716.41
2019-03-24T00:03:29.118Z,100716.83
2019-03-24T00:04:09.254Z,100718.09
2019-03-24T00:04:45.724Z,100719.39
2019-03-24T00:05:22.886Z,100719.39
2019-03-24T00:06:00.567Z,100713.92
2019-03-24T00:06:37.819Z,100713.92
2019-03-24T00:07:14.737Z,100709.87
2019-03-24T00:07:54.178Z,100715.44
2019-03-24T00:08:31.616Z,100714.24
2019-03-24T00:09:12.666Z,100714.24
2019-03-24T00:09:52.461Z,100709.34
2019-03-24T00:10:29.482Z,100708.75
2019-03-24T00:11:06.700Z,100713.30
2019-03-24T00:11:43.732Z,100713.30
2019-03-24T00:12:20.891Z,100714.66
2019-03-24T00:12:57.533Z,100710.85
2019-03-24T00:13:34.606Z,100708.40
2019-03-24T00:14:11.458Z,100708.40
2019-03-24T00:14:48.105Z,100708.68
2019-03-24T00:15:26.619Z,100714.05
2019-03-24T00:16:04.173Z,100709.98
2019-03-24T00:16:41.313Z,100709.98
2019-03-24T00:17:18.334Z,100710.94
2019-03-24T00:17:55.528Z,100702.83
2019-03-24T00:18:32.700Z,100713.25
2019-03-24T00:19:09.648Z,100706.44
2019-03-24T00:19:46.632Z,100713.70
2019-03-24T00:20:23.407Z,100709.14
2019-03-24T00:21:01.046Z,100715.23
2019-03-24T00:21:37.658Z,100715.23
2019-03-24T00:22:15.113Z,100714.41
2019-03-24T00:22:54.012Z,100724.03
2019-03-24T00:23:30.819Z,100725.58
2019-03-24T00:24:07.727Z,100725.58
2019-03-24T00:24:44.831Z,100725.53
2019-03-24T00:25:22.111Z,100728.16
2019-03-24T00:25:58.797Z,100728.16
2019-03-24T00:26:35.718Z,100737.83
2019-03-24T00:27:13.118Z,100733.42
2019-03-24T00:27:49.667Z,100726.95
2019-03-24T00:28:26.639Z,100740.88
2019-03-24T00:29:04.105Z,100735.22
2019-03-24T00:29:44.917Z,100737.27
2019-03-24T00:30:22.242Z,100729.95
2019-03-24T00:30:59.408Z,100729.95
2019-03-24T00:31:38.901Z,100742.50
2019-03-24T00:32:16.009Z,100742.50
2019-03-24T00:32:52.612Z,100733.33
2019-03-24T00:33:29.223Z,100749.10
2019-03-24T00:34:06.584Z,100744.46
2019-03-24T00:34:43.973Z,100746.31
2019-03-24T00:35:21.524Z,100751.12
2019-03-24T00:35:58.195Z,100754.60
2019-03-24T00:36:35.265Z,100748.58
2019-03-24T00:37:19.505Z,100753.63
2019-03-24T00:38:00.249Z,100754.38
2019-03-24T00:38:36.728Z,100758.08
2019-03-24T00:39:13.332Z,100758.82
2019-03-24T00:39:49.834Z,100758.48
2019-03-24T00:40:27.066Z,100766.50
2019-03-24T00:41:05.778Z,100768.91
2019-03-24T00:41:43.521Z,100762.32
2019-03-24T00:42:20.220Z,100761.46
2019-03-24T00:42:57.258Z,100765.16
2019-03-24T00:43:38.997Z,100764.55
2019-03-24T00:44:16.010Z,100765.84
2019-03-24T00:44:53.430Z,100769.29
2019-03-24T00:45:36.715Z,100768.37
2019-03-24T00:46:10.842Z,100768.00
2019-03-24T00:46:47.340Z,100768.43
2019-03-24T00:47:24.585Z,100762.67
2019-03-24T00:48:01.051Z,100766.12
2019-03-24T00:48:38.197Z,100768.70
2019-03-24T00:49:15.222Z,100767.28
2019-03-24T00:49:51.859Z,100765.06
2019-03-24T00:50:28.712Z,100764.75
2019-03-24T00:51:05.933Z,100767.09
2019-03-24T00:51:42.603Z,100766.72
2019-03-24T00:52:19.514Z,100766.13
2019-03-24T00:52:56.555Z,100769.58
2019-03-24T00:53:33.225Z,100771.60
2019-03-24T00:54:09.840Z,100769.09
2019-03-24T00:54:47.133Z,100771.43
2019-03-24T00:55:25.344Z,100770.28
2019-03-24T00:56:01.813Z,100768.48
2019-03-24T00:56:38.769Z,100771.44
2019-03-24T00:57:15.994Z,100767.79
2019-03-24T00:57:53.419Z,100768.27
2019-03-24T00:58:30.068Z,100773.08
2019-03-24T00:59:07.006Z,100770.54
2019-03-24T00:59:44.017Z,100770.50
2019-03-24T01:00:26.981Z,100770.91
2019-03-24T01:01:04.213Z,100770.53
2019-03-24T01:01:40.733Z,100767.44
2019-03-24T01:02:17.721Z,100774.31
2019-03-24T01:02:54.855Z,100771.03
2019-03-24T01:03:31.336Z,100769.05
2019-03-24T01:04:08.000Z,100777.92
2019-03-24T01:04:44.786Z,100771.86
2019-03-24T01:05:21.426Z,100771.23
2019-03-24T01:05:57.947Z,100767.02
2019-03-24T01:06:34.574Z,100770.45
2019-03-24T01:07:11.045Z,100767.38
2019-03-24T01:07:47.490Z,100763.16
2019-03-24T01:08:24.000Z,100774.74
2019-03-24T01:09:00.528Z,100767.55
2019-03-24T01:09:37.019Z,100763.09
2019-03-24T01:10:14.616Z,100766.77
2019-03-24T01:10:53.666Z,100762.33
2019-03-24T01:11:30.221Z,100763.56
2019-03-24T01:12:06.931Z,100768.36
2019-03-24T01:12:43.517Z,100770.67
2019-03-24T01:13:20.248Z,100766.20
2019-03-24T01:13:56.841Z,100773.00
2019-03-24T01:14:33.355Z,100771.27
2019-03-24T01:15:10.226Z,100768.55
2019-03-24T01:15:48.144Z,100768.16
2019-03-24T01:16:24.911Z,100764.08
2019-03-24T01:17:01.659Z,100769.67
2019-03-24T01:17:38.141Z,100766.63
2019-03-24T01:18:14.903Z,100760.23
2019-03-24T01:18:51.548Z,100768.07
2019-03-24T01:19:28.164Z,100763.59
2019-03-24T01:20:04.875Z,100760.98
2019-03-24T01:20:41.427Z,100767.12
2019-03-24T01:21:17.982Z,100765.45
2019-03-24T01:21:54.604Z,100764.27
2019-03-24T01:22:31.350Z,100762.59
2019-03-24T01:23:07.936Z,100768.19
2019-03-24T01:23:44.529Z,100762.34
2019-03-24T01:24:21.108Z,100763.41
2019-03-24T01:24:58.927Z,100765.48
2019-03-24T01:25:35.584Z,100769.39
2019-03-24T01:26:12.110Z,100768.42
2019-03-24T01:26:48.575Z,100778.33
2019-03-24T01:27:25.184Z,100773.84
2019-03-24T01:28:01.637Z,100775.38
2019-03-24T01:28:38.091Z,100774.41
2019-03-24T01:29:14.649Z,100778.08
2019-03-24T01:29:52.683Z,100774.38
2019-03-24T01:30:29.228Z,100777.61
2019-03-24T01:31:05.809Z,100781.84
2019-03-24T01:31:42.236Z,100777.94
2019-03-24T01:32:18.873Z,100779.44
2019-03-24T01:32:55.419Z,100775.18
2019-03-24T01:33:31.886Z,100781.80
2019-03-24T01:34:08.446Z,100778.90
2019-03-24T01:34:44.845Z,100783.39
2019-03-24T01:35:21.298Z,100775.94
2019-03-24T01:35:57.797Z,100782.32
2019-03-24T01:36:34.269Z,100785.75
2019-03-24T01:37:10.939Z,100780.77
2019-03-24T01:37:47.547Z,100777.39
2019-03-24T01:38:24.118Z,100786.53
2019-03-24T01:39:00.680Z,100783.98
2019-03-24T01:39:37.248Z,100790.60
2019-03-24T01:40:13.894Z,100785.48
2019-03-24T01:40:50.462Z,100789.71
2019-03-24T01:41:27.188Z,100789.23
2019-03-24T01:42:03.762Z,100792.29
2019-03-24T01:42:40.263Z,100791.07
2019-03-24T01:43:16.762Z,100793.37
2019-03-24T01:43:53.344Z,100792.80
2019-03-24T01:44:32.668Z,100797.03
2019-03-24T01:45:10.823Z,100796.07
2019-03-24T01:45:57.909Z,100796.78
2019-03-24T01:46:25.726Z,100798.61
2019-03-24T01:47:02.285Z,100800.67
2019-03-24T01:47:40.266Z,100797.05
2019-03-24T01:48:16.793Z,100797.98
2019-03-24T01:48:53.378Z,100799.48
2019-03-24T01:49:29.935Z,100797.16
2019-03-24T01:50:06.930Z,100795.39
2019-03-24T01:50:43.465Z,100805.87
2019-03-24T01:51:20.125Z,100798.63
2019-03-24T01:51:56.741Z,100799.89
2019-03-24T01:52:33.217Z,100798.32
2019-03-24T01:53:09.658Z,100797.42
2019-03-24T01:53:46.218Z,100800.08
2019-03-24T01:54:22.706Z,100802.38
2019-03-24T01:54:59.349Z,100801.94
2019-03-24T01:55:35.780Z,100798.31
2019-03-24T01:56:12.237Z,100798.11
2019-03-24T01:56:48.784Z,100801.30
2019-03-24T01:57:25.325Z,100803.13
2019-03-24T01:58:03.383Z,100807.61
2019-03-24T01:58:39.868Z,100806.14
2019-03-24T01:59:20.310Z,100803.34
2019-03-24T01:59:56.968Z,100806.77
2019-03-24T02:00:33.555Z,100809.84
2019-03-24T02:01:10.018Z,100811.91
2019-03-24T02:01:46.638Z,100816.95
2019-03-24T02:02:23.326Z,100811.28
2019-03-24T02:02:59.869Z,100819.26
2019-03-24T02:03:36.377Z,100817.22
2019-03-24T02:04:12.939Z,100816.09
2019-03-24T02:04:49.485Z,100822.91
2019-03-24T02:05:26.155Z,100810.17
2019-03-24T02:06:02.767Z,100819.38
2019-03-24T02:06:39.214Z,100814.49
2019-03-24T02:07:16.777Z,100816.55
2019-03-24T02:07:53.312Z,100817.91
2019-03-24T02:08:29.785Z,100815.29
2019-03-24T02:09:08.846Z,100817.68
2019-03-24T02:09:45.633Z,100813.36
2019-03-24T02:10:22.310Z,100812.12
2019-03-24T02:10:58.912Z,100811.78
2019-03-24T02:11:35.544Z,100815.88
2019-03-24T02:12:12.067Z,100815.88
2019-03-24T02:12:48.666Z,100813.37
2019-03-24T02:13:25.275Z,100814.17
2019-03-24T02:14:01.842Z,100815.12
2019-03-24T02:14:38.507Z,100825.70
2019-03-24T02:15:16.461Z,100816.61
2019-03-24T02:15:53.027Z,100816.37
2019-03-24T02:16:29.618Z,100818.65
2019-03-24T02:17:06.207Z,100818.65
2019-03-24T02:17:42.753Z,100819.11
2019-03-24T02:18:19.289Z,100821.38
2019-03-24T02:18:55.803Z,100819.34
2019-03-24T02:19:32.377Z,100820.93
2019-03-24T02:20:09.387Z,100820.93
2019-03-24T02:20:46.913Z,100817.87
2019-03-24T02:21:23.530Z,100819.34
2019-03-24T02:22:00.174Z,100821.61
2019-03-24T02:22:36.872Z,100821.73
2019-03-24T02:23:13.463Z,100814.49
2019-03-24T02:23:49.895Z,100825.25
2019-03-24T02:24:26.413Z,100825.25
2019-03-24T02:25:03.790Z,100820.47
2019-03-24T02:25:40.277Z,100824.00
2019-03-24T02:26:19.740Z,100823.43
2019-03-24T02:26:56.237Z,100824.95
2019-03-24T02:27:32.710Z,100823.70
2019-03-24T02:28:09.297Z,100822.12
2019-03-24T02:28:45.767Z,100826.11
2019-03-24T02:29:22.354Z,100829.45
2019-03-24T02:29:58.941Z,100821.95
2019-03-24T02:30:35.554Z,100829.45
2019-03-24T02:31:12.012Z,100830.60
2019-03-24T02:31:48.559Z,100827.88
2019-03-24T02:32:25.151Z,100822.86
2019-03-24T02:33:01.783Z,100826.05
2019-03-24T02:33:39.586Z,100824.12
2019-03-24T02:34:18.459Z,100820.25
2019-03-24T02:34:56.145Z,100826.05
2019-03-24T02:35:37.972Z,100820.59
2019-03-24T02:36:14.553Z,100821.08
2019-03-24T02:36:51.092Z,100817.67
2019-03-24T02:37:27.588Z,100818.12
2019-03-24T02:38:04.060Z,100819.98
2019-03-24T02:38:40.639Z,100821.57
2019-03-24T02:39:17.228Z,100815.42
2019-03-24T02:39:53.718Z,100814.06
2019-03-24T02:40:30.178Z,100819.52
2019-03-24T02:41:06.722Z,100811.98
2019-03-24T02:41:43.538Z,100812.89
2019-03-24T02:42:20.189Z,100815.20
2019-03-24T02:42:56.611Z,100815.66
2019-03-24T02:43:33.176Z,100816.70
2019-03-24T02:44:09.726Z,100819.78
2019-03-24T02:44:46.151Z,100820.58
2019-03-24T02:45:22.745Z,100821.48
2019-03-24T02:45:59.416Z,100815.78
2019-03-24T02:46:36.008Z,100817.83
2019-03-24T02:47:12.756Z,100817.14
2019-03-24T02:47:49.359Z,100818.20
2019-03-24T02:48:26.091Z,100817.85
2019-03-24T02:49:02.579Z,100824.34
2019-03-24T02:49:39.057Z,100820.47
2019-03-24T02:50:15.615Z,100826.39
2019-03-24T02:50:52.252Z,100818.64
2019-03-24T02:51:28.761Z,100821.72
2019-03-24T02:52:05.420Z,100824.11
2019-03-24T02:52:42.067Z,100824.56
2019-03-24T02:53:18.682Z,100821.83
2019-03-24T02:53:55.248Z,100820.03
2019-03-24T02:54:33.571Z,100812.28
2019-03-24T02:55:11.395Z,100813.98
2019-03-24T02:55:47.993Z,100813.66
2019-03-24T02:56:24.614Z,100814.79
2019-03-24T02:57:01.313Z,100813.88
2019-03-24T02:57:37.792Z,100814.09
2019-03-24T02:58:14.372Z,100809.98
2019-03-24T02:58:50.936Z,100814.08
2019-03-24T02:59:27.562Z,100809.06
2019-03-24T03:00:04.167Z,100809.86
2019-03-24T03:00:40.790Z,100807.13
2019-03-24T03:01:17.476Z,100806.10
2019-03-24T03:01:53.952Z,100807.24
2019-03-24T03:02:30.409Z,100806.10
2019-03-24T03:03:07.032Z,100807.91
2019-03-24T03:03:45.650Z,100809.51
2019-03-24T03:04:22.265Z,100807.94
2019-03-24T03:04:58.834Z,100808.62
2019-03-24T03:05:35.519Z,100805.89
2019-03-24T03:06:12.001Z,100807.95
2019-03-24T03:06:50.006Z,100809.89
2019-03-24T03:07:26.587Z,100813.64
2019-03-24T03:08:03.098Z,100807.03
2019-03-24T03:08:39.709Z,100810.91
2019-03-24T03:09:17.670Z,100807.95
2019-03-24T03:09:54.272Z,100805.34
2019-03-24T03:10:30.855Z,100809.22
2019-03-24T03:11:07.612Z,100814.23
2019-03-24T03:11:44.167Z,100809.78
2019-03-24T03:12:20.744Z,100810.92
2019-03-24T03:12:57.501Z,100809.78
2019-03-24T03:13:34.090Z,100813.42
2019-03-24T03:14:10.730Z,100809.65
2019-03-24T03:14:47.334Z,100807.24
2019-03-24T03:15:23.874Z,100804.39
2019-03-24T03:16:00.348Z,100810.30
2019-03-24T03:16:38.842Z,100808.02
2019-03-24T03:17:21.338Z,100809.16
2019-03-24T03:17:57.931Z,100807.22
2019-03-24T03:18:34.522Z,100808.14
2019-03-24T03:19:13.949Z,100806.10
2019-03-24T03:19:53.590Z,100808.85
2019-03-24T03:20:30.000Z,100804.98
2019-03-24T03:21:06.857Z,100811.81
2019-03-24T03:21:43.356Z,100810.45
2019-03-24T03:22:19.921Z,100809.30
2019-03-24T03:22:57.937Z,100808.85
2019-03-24T03:23:34.539Z,100812.14
2019-03-24T03:24:11.151Z,100810.66
2019-03-24T03:24:47.801Z,100804.04
2019-03-24T03:25:24.258Z,100807.45
2019-03-24T03:26:00.773Z,100807.93
2019-03-24T03:26:37.258Z,100808.84
2019-03-24T03:27:13.740Z,100807.13
2019-03-24T03:27:50.273Z,100806.12
2019-03-24T03:28:26.851Z,100814.32
2019-03-24T03:29:03.470Z,100812.03
2019-03-24T03:29:39.988Z,100808.38
2019-03-24T03:30:16.670Z,100809.41
2019-03-24T03:30:53.259Z,100810.66
2019-03-24T03:31:29.821Z,100810.66
2019-03-24T03:32:06.476Z,100810.31
2019-03-24T03:32:43.129Z,100819.19
2019-03-24T03:33:19.712Z,100814.97
2019-03-24T03:33:56.233Z,100817.23
2019-03-24T03:34:32.697Z,100813.70
2019-03-24T03:35:09.911Z,100817.94
2019-03-24T03:35:46.490Z,100811.77
2019-03-24T03:36:22.966Z,100804.70
2019-03-24T03:36:59.682Z,100804.81
2019-03-24T03:37:36.275Z,100807.56
2019-03-24T03:38:12.788Z,100809.02
2019-03-24T03:38:49.357Z,100800.86
2019-03-24T03:39:25.864Z,100803.34
2019-03-24T03:40:02.336Z,100804.27
2019-03-24T03:40:38.947Z,100800.39
2019-03-24T03:41:15.705Z,100798.35
2019-03-24T03:41:52.190Z,100799.02
2019-03-24T03:42:29.229Z,100796.53
2019-03-24T03:43:05.831Z,100798.12
2019-03-24T03:43:42.396Z,100801.08
2019-03-24T03:44:19.096Z,100807.24
2019-03-24T03:44:55.719Z,100799.41
2019-03-24T03:45:32.717Z,100802.71
2019-03-24T03:46:09.264Z,100796.33
2019-03-24T03:46:52.496Z,100804.06
2019-03-24T03:47:24.169Z,100798.14
2019-03-24T03:48:00.612Z,100795.85
2019-03-24T03:48:37.085Z,100795.63
2019-03-24T03:49:13.609Z,100800.53
2019-03-24T03:49:50.235Z,100794.71
2019-03-24T03:50:26.816Z,100796.53
2019-03-24T03:51:03.334Z,100796.87
2019-03-24T03:51:41.020Z,100797.47
2019-03-24T03:52:17.435Z,100795.32
2019-03-24T03:52:54.079Z,100790.99
2019-03-24T03:53:30.866Z,100792.13
2019-03-24T03:54:07.326Z,100791.76
2019-03-24T03:54:43.800Z,100793.14
2019-03-24T03:55:20.251Z,100788.12
2019-03-24T03:55:56.736Z,100787.22
2019-03-24T03:56:33.187Z,100793.48
2019-03-24T03:57:09.724Z,100787.33
2019-03-24T03:57:46.180Z,100788.12
2019-03-24T03:58:22.623Z,100785.61
2019-03-24T03:59:00.692Z,100787.66
2019-03-24T03:59:37.466Z,100788.56
2019-03-24T04:00:14.132Z,100780.03
2019-03-24T04:00:50.597Z,100777.53
2019-03-24T04:01:27.252Z,100782.88
2019-03-24T04:02:03.733Z,100782.44
2019-03-24T04:02:40.265Z,100783.34
2019-03-24T04:03:16.871Z,100782.66
2019-03-24T04:03:53.535Z,100771.50
2019-03-24T04:04:29.954Z,100777.19
2019-03-24T04:05:06.957Z,100773.55
2019-03-24T04:05:43.486Z,100775.36
2019-03-24T04:06:19.935Z,100781.05
2019-03-24T04:06:56.528Z,100772.18
2019-03-24T04:07:33.000Z,100767.06
2019-03-24T04:08:09.798Z,100776.50
2019-03-24T04:08:46.361Z,100767.50
2019-03-24T04:09:23.026Z,100769.09
2019-03-24T04:09:59.509Z,100771.15
2019-03-24T04:10:36.075Z,100767.17
2019-03-24T04:11:12.683Z,100764.22
2019-03-24T04:11:49.327Z,100763.31
2019-03-24T04:12:25.803Z,100761.71
2019-03-24T04:13:02.227Z,100765.36
2019-03-24T04:13:38.670Z,100764.23
2019-03-24T04:14:15.229Z,100760.13
2019-03-24T04:14:51.704Z,100759.78
2019-03-24T04:15:28.319Z,100751.00
2019-03-24T04:16:04.848Z,100751.00
2019-03-24T04:16:41.488Z,100755.66
2019-03-24T04:17:18.021Z,100748.83
2019-03-24T04:17:54.589Z,100747.12
2019-03-24T04:18:31.063Z,100747.83
2019-03-24T04:19:07.599Z,100748.28
2019-03-24T04:19:44.075Z,100749.64
2019-03-24T04:20:20.605Z,100743.83
2019-03-24T04:20:57.115Z,100739.96
2019-03-24T04:21:33.600Z,100749.86
2019-03-24T04:22:10.101Z,100751.55
2019-03-24T04:22:46.666Z,100747.12
2019-03-24T04:23:23.190Z,100750.53
2019-03-24T04:23:59.757Z,100746.88
2019-03-24T04:24:36.231Z,100747.69
2019-03-24T04:25:12.803Z,100741.65
2019-03-24T04:25:49.440Z,100741.44
2019-03-24T04:26:26.064Z,100741.90
2019-03-24T04:27:02.636Z,100741.45
2019-03-24T04:27:39.220Z,100742.34
2019-03-24T04:28:15.705Z,100737.80
2019-03-24T04:28:52.309Z,100732.78
2019-03-24T04:29:28.969Z,100735.50
2019-03-24T04:30:05.651Z,100732.99
2019-03-24T04:30:42.217Z,100737.11
2019-03-24T04:31:18.766Z,100735.06
2019-03-24T04:31:55.340Z,100735.73
2019-03-24T04:32:31.819Z,100732.55
2019-03-24T04:33:08.304Z,100732.56
2019-03-24T04:33:44.778Z,100731.64
2019-03-24T04:34:21.229Z,100732.42
2019-03-24T04:34:57.943Z,100732.19
2019-03-24T04:35:34.462Z,100733.22
2019-03-24T04:36:10.886Z,100732.77
2019-03-24T04:36:47.353Z,100732.20
2019-03-24T04:37:23.949Z,100724.80
2019-03-24T04:38:00.555Z,100726.40
2019-03-24T04:38:37.103Z,100727.06
2019-03-24T04:39:13.572Z,100729.36
2019-03-24T04:39:50.127Z,100726.72
2019-03-24T04:40:26.846Z,100731.38
2019-03-24T04:41:03.326Z,100730.45
2019-03-24T04:41:39.984Z,100723.84
2019-03-24T04:42:16.524Z,100719.29
2019-03-24T04:42:53.314Z,100719.73
2019-03-24T04:43:29.859Z,100722.69
2019-03-24T04:44:06.399Z,100719.27
2019-03-24T04:44:42.905Z,100721.20
2019-03-24T04:45:19.347Z,100713.34
2019-03-24T04:45:55.803Z,100718.39
2019-03-24T04:46:32.260Z,100710.96
2019-03-24T04:47:16.337Z,100710.70
2019-03-24T04:47:47.229Z,100715.51
2019-03-24T04:48:23.723Z,100714.23
2019-03-24T04:49:00.174Z,100713.09
2019-03-24T04:49:37.843Z,100711.98
2019-03-24T04:50:14.481Z,100710.84
2019-03-24T04:50:51.089Z,100710.36
2019-03-24T04:51:27.565Z,100704.92
2019-03-24T04:52:04.146Z,100696.05
2019-03-24T04:52:40.695Z,100702.19
2019-03-24T04:53:17.407Z,100704.09
2019-03-24T04:53:54.019Z,100704.80
2019-03-24T04:54:30.621Z,100700.66
2019-03-24T04:55:07.473Z,100701.77
2019-03-24T04:55:43.949Z,100701.19
2019-03-24T04:56:20.427Z,100704.14
2019-03-24T04:56:56.985Z,100699.59
2019-03-24T04:57:35.057Z,100699.34
2019-03-24T04:58:11.584Z,100694.75
2019-03-24T04:58:48.026Z,100694.84
2019-03-24T04:59:24.465Z,100698.11
2019-03-24T05:00:00.929Z,100690.81
2019-03-24T05:00:39.227Z,100689.18
2019-03-24T05:01:15.696Z,100689.13
2019-03-24T05:01:52.269Z,100693.80
2019-03-24T05:02:28.792Z,100694.59
2019-03-24T05:03:05.395Z,100693.09
2019-03-24T05:03:41.982Z,100690.41
2019-03-24T05:04:18.534Z,100684.06
2019-03-24T05:04:55.023Z,100683.62
2019-03-24T05:05:31.569Z,100684.41
2019-03-24T05:06:09.337Z,100688.03
2019-03-24T05:06:47.365Z,100683.00
2019-03-24T05:07:23.846Z,100680.04
2019-03-24T05:08:00.389Z,100678.41
2019-03-24T05:08:36.843Z,100681.85
2019-03-24T05:09:15.280Z,100678.31
2019-03-24T05:09:51.745Z,100679.77
2019-03-24T05:10:32.356Z,100677.52
2019-03-24T05:11:08.835Z,100675.84
2019-03-24T05:11:48.507Z,100679.81
2019-03-24T05:12:25.057Z,100669.80
2019-03-24T05:13:01.522Z,100673.70
2019-03-24T05:13:38.119Z,100673.70
2019-03-24T05:14:14.667Z,100673.70
2019-03-24T05:14:51.214Z,100672.47
2019-03-24T05:15:27.859Z,100672.81
2019-03-24T05:16:04.402Z,100674.23
2019-03-24T05:16:43.725Z,100660.90
2019-03-24T05:17:26.894Z,100671.72
2019-03-24T05:17:59.728Z,100673.88
2019-03-24T05:18:39.249Z,100666.46
2019-03-24T05:19:15.816Z,100670.79
2019-03-24T05:19:52.439Z,100670.29
2019-03-24T05:20:28.980Z,100670.96
2019-03-24T05:21:05.457Z,100671.52
2019-03-24T05:21:44.689Z,100668.75
2019-03-24T05:22:21.133Z,100664.66
2019-03-24T05:22:57.709Z,100668.53
2019-03-24T05:23:34.235Z,100670.61
2019-03-24T05:24:10.712Z,100665.84
2019-03-24T05:24:47.269Z,100664.95
2019-03-24T05:25:23.849Z,100661.16
2019-03-24T05:26:00.493Z,100660.72
2019-03-24T05:26:37.171Z,100659.72
2019-03-24T05:27:13.785Z,100663.38
2019-03-24T05:27:50.249Z,100660.42
2019-03-24T05:28:26.694Z,100668.22
2019-03-24T05:29:03.314Z,100649.30
2019-03-24T05:29:39.879Z,100655.73
2019-03-24T05:30:16.510Z,100651.38
2019-03-24T05:30:53.612Z,100646.13
2019-03-24T05:31:30.088Z,100651.34
2019-03-24T05:32:06.848Z,100652.48
2019-03-24T05:32:43.545Z,100647.01
2019-03-24T05:33:20.020Z,100648.38
2019-03-24T05:33:56.632Z,100651.34
2019-03-24T05:34:35.447Z,100651.28
2019-03-24T05:35:12.101Z,100648.26
2019-03-24T05:35:48.561Z,100644.63
2019-03-24T05:36:25.143Z,100647.27
2019-03-24T05:37:01.679Z,100645.55
2019-03-24T05:37:38.223Z,100644.41
2019-03-24T05:38:14.780Z,100642.79
2019-03-24T05:38:51.370Z,100642.22
2019-03-24T05:39:27.940Z,100647.14
2019-03-24T05:40:04.439Z,100640.09
2019-03-24T05:40:40.930Z,100640.59
2019-03-24T05:41:17.506Z,100633.77
2019-03-24T05:41:54.148Z,100635.48
2019-03-24T05:42:30.607Z,100632.05
2019-03-24T05:43:07.332Z,100633.77
2019-03-24T05:43:43.810Z,100635.72
2019-03-24T05:44:20.279Z,100632.77
2019-03-24T05:44:56.902Z,100632.41
2019-03-24T05:45:33.469Z,100633.63
2019-03-24T05:46:11.443Z,100630.36
2019-03-24T05:46:47.895Z,100627.97
2019-03-24T05:47:24.434Z,100631.03
2019-03-24T05:48:01.063Z,100628.99
2019-03-24T05:48:37.606Z,100625.36
2019-03-24T05:49:14.083Z,100625.12
2019-03-24T05:49:50.620Z,100617.50
2019-03-24T05:50:27.182Z,100618.06
2019-03-24T05:51:03.650Z,100620.36
2019-03-24T05:51:40.276Z,100621.03
2019-03-24T05:52:16.931Z,100618.30
2019-03-24T05:52:53.499Z,100617.27
2019-03-24T05:53:30.075Z,100616.70
2019-03-24T05:54:06.625Z,100613.29
2019-03-24T05:54:43.209Z,100615.33
2019-03-24T05:55:19.678Z,100609.88
2019-03-24T05:55:59.173Z,100611.92
2019-03-24T05:56:35.739Z,100608.52
2019-03-24T05:57:12.291Z,100607.02
2019-03-24T05:57:48.934Z,100603.50
2019-03-24T05:58:25.601Z,100606.00
2019-03-24T05:59:02.026Z,100598.48
2019-03-24T05:59:38.575Z,100596.44
2019-03-24T06:00:15.183Z,100602.14
2019-03-24T06:00:51.681Z,100593.94
2019-03-24T06:01:29.301Z,100598.50
2019-03-24T06:02:05.991Z,100588.63
2019-03-24T06:02:42.581Z,100583.63
2019-03-24T06:03:19.144Z,100592.69
2019-03-24T06:03:55.604Z,100587.36
2019-03-24T06:04:32.029Z,100590.97
2019-03-24T06:05:08.567Z,100583.34
2019-03-24T06:05:45.125Z,100583.58
2019-03-24T06:06:21.641Z,100585.31
2019-03-24T06:06:58.218Z,100576.89
2019-03-24T06:07:34.862Z,100577.81
2019-03-24T06:08:11.510Z,100575.19
2019-03-24T06:08:48.060Z,100574.16
2019-03-24T06:09:24.645Z,100571.17
2019-03-24T06:10:01.183Z,100569.34
2019-03-24T06:10:37.817Z,100571.39
2019-03-24T06:11:14.377Z,100567.98
2019-03-24T06:11:50.987Z,100569.80
2019-03-24T06:12:27.596Z,100567.53
2019-03-24T06:13:04.044Z,100564.83
2019-03-24T06:13:40.642Z,100561.16
2019-03-24T06:14:18.347Z,100568.91
2019-03-24T06:14:58.435Z,100563.13
2019-03-24T06:15:35.057Z,100562.31
2019-03-24T06:16:11.648Z,100560.48
2019-03-24T06:16:48.101Z,100557.06
2019-03-24T06:17:24.689Z,100551.58
2019-03-24T06:18:01.143Z,100552.72
2019-03-24T06:18:37.641Z,100551.07
2019-03-24T06:19:16.856Z,100545.83
2019-03-24T06:19:53.448Z,100542.05
2019-03-24T06:20:30.030Z,100543.62
2019-03-24T06:21:07.786Z,100542.80
2019-03-24T06:21:44.261Z,100541.65
2019-03-24T06:22:22.058Z,100540.27
2019-03-24T06:22:58.713Z,100541.69
2019-03-24T06:23:35.228Z,100539.70
2019-03-24T06:24:11.764Z,100541.05
2019-03-24T06:24:48.271Z,100535.09
2019-03-24T06:25:24.918Z,100539.77
2019-03-24T06:26:01.549Z,100540.30
2019-03-24T06:26:37.993Z,100531.30
2019-03-24T06:27:14.621Z,100534.34
2019-03-24T06:27:51.180Z,100530.13
2019-03-24T06:28:27.766Z,100527.88
2019-03-24T06:29:04.360Z,100526.20
2019-03-24T06:29:40.813Z,100526.78
2019-03-24T06:30:18.958Z,100518.31
2019-03-24T06:30:55.411Z,100518.70
2019-03-24T06:31:31.851Z,100514.36
2019-03-24T06:32:08.482Z,100516.83
2019-03-24T06:32:44.933Z,100513.73
2019-03-24T06:33:21.492Z,100511.34
2019-03-24T06:33:58.102Z,100512.00
2019-03-24T06:34:34.681Z,100510.84
2019-03-24T06:35:11.424Z,100511.84
2019-03-24T06:35:48.008Z,100509.89
2019-03-24T06:36:25.815Z,100508.14
2019-03-24T06:37:02.379Z,100516.84
2019-03-24T06:37:38.854Z,100510.40
2019-03-24T06:38:15.430Z,100513.30
2019-03-24T06:38:52.029Z,100509.14
2019-03-24T06:39:28.477Z,100503.61
2019-03-24T06:40:05.054Z,100506.11
2019-03-24T06:40:42.921Z,100506.38
2019-03-24T06:41:19.404Z,100501.84
2019-03-24T06:41:55.884Z,100500.24
2019-03-24T06:42:32.323Z,100497.87
2019-03-24T06:43:08.898Z,100497.96
2019-03-24T06:43:45.733Z,100490.42
2019-03-24T06:44:22.217Z,100491.09
2019-03-24T06:44:58.783Z,100491.28
2019-03-24T06:45:35.332Z,100485.59
2019-03-24T06:46:11.948Z,100492.43
2019-03-24T06:46:48.470Z,100484.77
2019-03-24T06:47:24.909Z,100489.45
2019-03-24T06:48:01.344Z,100491.25
2019-03-24T06:48:37.959Z,100490.07
2019-03-24T06:49:14.401Z,100481.97
2019-03-24T06:49:50.884Z,100487.97
2019-03-24T06:50:27.364Z,100485.35
2019-03-24T06:51:03.917Z,100478.56
2019-03-24T06:51:40.516Z,100479.02
2019-03-24T06:52:18.639Z,100485.89
2019-03-24T06:52:55.239Z,100475.00
2019-03-24T06:53:34.510Z,100474.29
2019-03-24T06:54:11.072Z,100472.66
2019-03-24T06:54:47.664Z,100465.08
2019-03-24T06:55:24.204Z,100469.40
2019-03-24T06:56:00.637Z,100461.55
2019-03-24T06:56:37.226Z,100461.77
2019-03-24T06:57:13.850Z,100465.61
2019-03-24T06:57:50.398Z,100460.84
2019-03-24T06:58:28.170Z,100465.96
2019-03-24T06:59:04.717Z,100461.52
2019-03-24T06:59:41.177Z,100461.73
2019-03-24T07:00:18.050Z,100459.34
2019-03-24T07:00:54.541Z,100459.70